createdAt,value
2018-05-26T00:06:10.554Z,3.8
2018-05-26T00:22:56.997Z,3.8
2018-05-26T00:39:43.380Z,3.8
2018-05-26T00:56:29.624Z,3.8
2018-05-26T01:13:15.725Z,3.8
2018-05-26T01:30:01.777Z,3.8
2018-05-26T01:46:47.757Z,3.8
2018-05-26T02:20:19.240Z,3.7
2018-05-26T02:37:04.744Z,3.7
2018-05-26T02:53:50.166Z,3.7
2018-05-26T03:10:34.896Z,3.7
2018-05-26T03:27:19.569Z,3.7
2018-05-26T03:44:04.189Z,3.7
2018-05-26T04:00:48.789Z,3.7
2018-05-26T04:17:33.828Z,3.7
2018-05-26T04:34:19.265Z,3.8
2018-05-26T04:51:04.839Z,3.8
2018-05-26T05:07:50.629Z,3.8
2018-05-26T05:24:36.673Z,3.9
2018-05-26T05:41:22.836Z,3.9
2018-05-26T05:54:48.068Z,4.0
2018-05-26T06:08:13.648Z,4.0
2018-05-26T06:25:01.202Z,4.0
2018-05-26T06:41:49.270Z,4.0
2018-05-26T06:58:37.928Z,4.0
2018-05-26T07:08:43.361Z,4.0
2018-05-26T07:22:11.135Z,4.1
2018-05-26T07:39:01.288Z,4.1
2018-05-26T07:55:51.924Z,4.1
2018-05-26T08:12:42.831Z,4.1
2018-05-26T08:26:11.900Z,4.1
2018-05-26T08:43:03.579Z,4.1
2018-05-26T08:53:11.009Z,4.1
2018-05-26T09:10:03.389Z,4.1
2018-05-26T09:20:10.979Z,4.2
2018-05-26T09:37:03.912Z,4.2
2018-05-26T09:53:57.030Z,4.2
2018-05-26T10:07:27.742Z,4.3
2018-05-26T10:14:13.221Z,4.2
2018-05-26T10:27:44.747Z,4.3
2018-05-26T10:37:53.830Z,4.4
2018-05-26T10:42:58.438Z,4.4
2018-05-26T10:44:40.097Z,4.4
2018-05-26T10:46:21.602Z,4.4
2018-05-26T10:56:30.631Z,4.4
2018-05-26T11:06:39.735Z,4.4
2018-05-26T11:18:31.228Z,4.4
2018-05-26T11:35:29.782Z,4.4
2018-05-26T11:40:30.747Z,4.5
2018-05-26T11:47:17.122Z,4.5
2018-05-26T12:04:13.015Z,4.5
2018-05-26T12:09:17.865Z,4.5
2018-05-26T12:14:22.693Z,4.5
2018-05-26T12:31:18.805Z,4.5
2018-05-26T12:48:15.153Z,4.6
2018-05-26T13:05:11.634Z,4.6
2018-05-26T13:11:58.295Z,4.6
2018-05-26T13:28:54.903Z,4.6
2018-05-26T13:40:46.634Z,4.6
2018-05-26T13:47:33.538Z,4.6
2018-05-26T14:04:30.815Z,4.5
2018-05-26T14:14:41.268Z,4.5
2018-05-26T14:31:38.497Z,4.5
2018-05-26T14:48:36.024Z,4.4
2018-05-26T15:03:51.814Z,4.6
2018-05-26T15:20:48.663Z,4.6
2018-05-26T15:32:40.597Z,4.5
2018-05-26T15:49:38.131Z,4.5
2018-05-26T16:06:35.401Z,4.5
2018-05-26T16:23:32.770Z,4.4
2018-05-26T16:40:30.762Z,4.4
2018-05-26T16:43:54.276Z,4.5
2018-05-26T16:54:04.885Z,4.4
2018-05-26T17:11:02.878Z,4.4
2018-05-26T17:28:00.736Z,4.3
2018-05-26T17:33:05.974Z,4.5
2018-05-26T17:44:57.915Z,4.6
2018-05-26T17:51:44.286Z,4.5
2018-05-26T18:01:53.540Z,4.3
2018-05-26T18:12:01.927Z,4.1
2018-05-26T18:28:55.349Z,4.1
2018-05-26T18:45:48.138Z,4.0
2018-05-26T19:02:40.451Z,4.0
2018-05-26T19:16:09.948Z,4.0
2018-05-26T19:33:01.352Z,4.0
2018-05-26T19:46:30.020Z,4.0
2018-05-26T20:03:20.419Z,4.0
2018-05-26T20:20:10.542Z,4.0
2018-05-26T20:37:00.286Z,4.0
2018-05-26T20:53:49.776Z,3.9
2018-05-26T21:10:38.787Z,3.9
2018-05-26T21:27:27.582Z,3.9
2018-05-26T21:44:16.168Z,3.9
2018-05-26T22:01:04.498Z,3.9
2018-05-26T22:17:52.570Z,3.9
2018-05-26T22:34:40.405Z,3.9
2018-05-26T22:51:27.991Z,3.9
2018-05-26T23:08:15.331Z,3.9
2018-05-26T23:25:02.461Z,3.8
2018-05-26T23:41:49.455Z,3.8
2018-05-26T23:58:36.294Z,3.8
